Time;durP1;ratioP1;P1;durP2;ratioP2;P2;SDS_P1;SDS_P2;PMS_P1;PMS_P2;Temp;Humidity;BMP_temperature;BMP_pressure;BME280_temperature;BME280_humidity;BME280_pressure;Samples;Min_cycle;Max_cycle;Signal;HPM_P1;HPM_P2
2023/07/19 00:01:05;;;;;;;5.95;4.82;;;;;;;;;;5093009;28;20135;-75
2023/07/19 00:03:31;;;;;;;6.78;4.80;;;;;;;;;;5093070;28;20466;-75
2023/07/19 00:06:00;;;;;;;5.53;4.82;;;;;;;;;;5094113;28;20063;-75
2023/07/19 00:08:26;;;;;;;8.65;5.10;;;;;;;;;;5094401;28;20478;-75
2023/07/19 00:10:52;;;;;;;7.43;4.78;;;;;;;;;;5094872;28;20190;-75
2023/07/19 00:13:18;;;;;;;6.43;5.30;;;;;;;;;;5095859;27;20054;-74
2023/07/19 00:15:44;;;;;;;6.57;5.28;;;;;;;;;;5099627;28;20114;-75
2023/07/19 00:18:10;;;;;;;5.70;5.10;;;;;;;;;;5102653;27;20082;-75
2023/07/19 00:20:36;;;;;;;6.75;5.60;;;;;;;;;;5092517;28;20470;-75
2023/07/19 00:23:02;;;;;;;6.95;5.68;;;;;;;;;;5106511;28;20048;-75
2023/07/19 00:25:28;;;;;;;6.80;5.68;;;;;;;;;;5110190;27;20051;-75
2023/07/19 00:27:54;;;;;;;7.97;5.80;;;;;;;;;;5099904;28;20059;-75
2023/07/19 00:30:20;;;;;;;7.15;6.45;;;;;;;;;;5099859;27;20051;-75
2023/07/19 00:32:46;;;;;;;6.65;5.95;;;;;;;;;;5097108;28;20044;-75
2023/07/19 00:35:12;;;;;;;7.47;6.15;;;;;;;;;;5092797;28;20044;-75
2023/07/19 00:37:38;;;;;;;6.82;6.10;;;;;;;;;;5093798;28;20485;-75
2023/07/19 00:40:05;;;;;;;6.97;6.25;;;;;;;;;;5093097;28;20043;-75
2023/07/19 00:42:32;;;;;;;7.95;6.45;;;;;;;;;;5132562;27;20043;-75
2023/07/19 00:44:58;;;;;;;9.10;6.15;;;;;;;;;;5113193;28;20458;-75
2023/07/19 00:47:24;;;;;;;7.72;6.10;;;;;;;;;;5113644;28;20537;-75
2023/07/19 00:49:50;;;;;;;8.23;6.13;;;;;;;;;;5113945;28;20127;-75
2023/07/19 00:52:17;;;;;;;8.40;6.45;;;;;;;;;;5104494;28;20374;-75
2023/07/19 00:54:44;;;;;;;7.65;6.28;;;;;;;;;;5119830;27;20035;-75
2023/07/19 00:57:10;;;;;;;8.98;6.35;;;;;;;;;;5112439;28;20059;-75
2023/07/19 00:59:37;;;;;;;7.25;6.25;;;;;;;;;;5124230;27;20043;-75
2023/07/19 01:02:03;;;;;;;8.68;6.85;;;;;;;;;;5134478;27;20070;-75
2023/07/19 01:04:29;;;;;;;7.53;6.00;;;;;;;;;;5134384;27;20074;-75
2023/07/19 01:06:56;;;;;;;11.63;6.10;;;;;;;;;;5132121;27;20074;-75
2023/07/19 01:09:22;;;;;;;7.88;5.95;;;;;;;;;;5113350;28;20063;-75
2023/07/19 01:11:48;;;;;;;9.02;5.82;;;;;;;;;;5113686;28;20044;-75
2023/07/19 01:14:14;;;;;;;9.18;6.65;;;;;;;;;;5112962;28;20051;-75
2023/07/19 01:16:40;;;;;;;7.10;6.00;;;;;;;;;;5113173;28;20082;-75
2023/07/19 01:19:09;;;;;;;8.02;6.03;;;;;;;;;;5110322;28;20088;-75
2023/07/19 01:21:35;;;;;;;9.23;7.00;;;;;;;;;;5134268;27;20050;-75
2023/07/19 01:24:01;;;;;;;7.60;6.25;;;;;;;;;;5118600;27;20134;-75
2023/07/19 01:26:27;;;;;;;7.68;6.68;;;;;;;;;;5106026;28;20052;-75
2023/07/19 01:28:56;;;;;;;9.23;6.93;;;;;;;;;;5093169;28;20052;-75
2023/07/19 01:31:22;;;;;;;8.10;6.63;;;;;;;;;;5093397;28;20044;-75
2023/07/19 01:33:48;;;;;;;8.05;6.88;;;;;;;;;;5092820;28;20046;-75
2023/07/19 01:36:14;;;;;;;9.05;7.18;;;;;;;;;;5093028;28;20135;-75
2023/07/19 01:38:41;;;;;;;8.45;7.22;;;;;;;;;;5104453;28;20064;-75
2023/07/19 01:41:07;;;;;;;10.07;7.32;;;;;;;;;;5115383;28;20537;-75
2023/07/19 01:43:34;;;;;;;9.73;7.45;;;;;;;;;;5131321;28;20085;-75
2023/07/19 01:46:00;;;;;;;8.90;7.35;;;;;;;;;;5113382;27;20420;-75
2023/07/19 01:48:26;;;;;;;10.55;8.02;;;;;;;;;;5119183;27;20043;-75
2023/07/19 01:50:52;;;;;;;9.13;7.60;;;;;;;;;;5098562;27;20040;-75
2023/07/19 01:53:18;;;;;;;11.95;8.18;;;;;;;;;;5111301;28;20044;-75
2023/07/19 01:55:44;;;;;;;11.20;8.20;;;;;;;;;;5116163;28;20508;-75
2023/07/19 01:58:11;;;;;;;11.77;7.80;;;;;;;;;;5115902;27;20478;-75
2023/07/19 02:00:37;;;;;;;9.48;7.70;;;;;;;;;;5117193;27;20054;-75
2023/07/19 02:03:03;;;;;;;10.48;8.43;;;;;;;;;;5116736;27;20039;-75
2023/07/19 02:05:29;;;;;;;12.82;8.30;;;;;;;;;;5117165;27;20433;-75
2023/07/19 02:07:55;;;;;;;9.77;8.45;;;;;;;;;;5105059;28;20076;-75
2023/07/19 02:10:22;;;;;;;11.98;8.38;;;;;;;;;;5112292;28;20394;-75
2023/07/19 02:12:48;;;;;;;10.70;7.85;;;;;;;;;;5096271;28;20040;-75
2023/07/19 02:15:14;;;;;;;10.32;8.20;;;;;;;;;;5110658;28;20044;-75
2023/07/19 02:17:40;;;;;;;11.90;8.00;;;;;;;;;;5111415;28;20046;-75
2023/07/19 02:20:07;;;;;;;9.00;8.10;;;;;;;;;;5096167;28;20339;-75
2023/07/19 02:22:33;;;;;;;9.45;8.45;;;;;;;;;;5094907;28;20047;-75
2023/07/19 02:24:59;;;;;;;9.80;8.40;;;;;;;;;;5096157;28;20085;-75
2023/07/19 02:27:25;;;;;;;11.00;8.85;;;;;;;;;;5094462;28;20052;-75
2023/07/19 02:29:51;;;;;;;11.60;9.00;;;;;;;;;;5096049;27;20052;-75
2023/07/19 02:32:17;;;;;;;11.63;8.40;;;;;;;;;;5103949;27;20117;-75
2023/07/19 02:34:43;;;;;;;11.40;8.50;;;;;;;;;;5095401;28;20381;-75
2023/07/19 02:37:09;;;;;;;10.00;8.50;;;;;;;;;;5096590;28;20131;-75
2023/07/19 02:39:35;;;;;;;10.65;8.13;;;;;;;;;;5096223;28;20051;-75
2023/07/19 02:42:01;;;;;;;10.63;8.95;;;;;;;;;;5094846;28;20039;-75
2023/07/19 02:44:28;;;;;;;11.32;9.13;;;;;;;;;;5095937;27;20147;-75
2023/07/19 02:46:54;;;;;;;11.55;8.60;;;;;;;;;;5095924;28;20036;-75
2023/07/19 02:49:20;;;;;;;12.02;9.73;;;;;;;;;;5110242;27;20572;-75
2023/07/19 02:51:46;;;;;;;14.02;9.15;;;;;;;;;;5136950;27;20126;-75
2023/07/19 02:54:12;;;;;;;11.00;9.10;;;;;;;;;;5136670;27;20096;-75
2023/07/19 02:56:38;;;;;;;12.18;9.27;;;;;;;;;;5134298;27;20047;-75
2023/07/19 02:59:05;;;;;;;10.68;8.93;;;;;;;;;;5098169;28;20140;-75
2023/07/19 03:01:31;;;;;;;11.35;9.50;;;;;;;;;;5117410;27;20039;-75
2023/07/19 03:03:57;;;;;;;12.63;9.35;;;;;;;;;;5128017;27;20043;-75
2023/07/19 03:06:23;;;;;;;13.40;9.43;;;;;;;;;;5116005;28;20114;-75
2023/07/19 03:08:49;;;;;;;10.02;8.68;;;;;;;;;;5097857;28;20036;-75
2023/07/19 03:11:15;;;;;;;11.30;8.90;;;;;;;;;;5095453;28;20044;-75
2023/07/19 03:13:41;;;;;;;11.75;9.15;;;;;;;;;;5095469;28;20040;-75
2023/07/19 03:16:08;;;;;;;11.38;9.63;;;;;;;;;;5104062;28;20035;-75
2023/07/19 03:18:34;;;;;;;11.38;9.65;;;;;;;;;;5097980;27;20504;-75
2023/07/19 03:21:01;;;;;;;12.80;9.30;;;;;;;;;;5095748;28;20059;-75
2023/07/19 03:23:30;;;;;;;12.05;9.43;;;;;;;;;;5095961;28;20123;-75
2023/07/19 03:25:57;;;;;;;12.20;9.50;;;;;;;;;;5096858;28;20036;-75
2023/07/19 03:28:28;;;;;;;15.65;10.05;;;;;;;;;;5105624;27;20165;-75
2023/07/19 03:30:54;;;;;;;10.75;9.07;;;;;;;;;;5115252;28;20591;-75
2023/07/19 03:33:24;;;;;;;11.20;9.60;;;;;;;;;;5105940;28;20055;-75
2023/07/19 03:35:51;;;;;;;12.15;10.02;;;;;;;;;;5096621;27;20036;-75
2023/07/19 03:38:18;;;;;;;13.55;10.05;;;;;;;;;;5095043;28;20040;-75
2023/07/19 03:40:45;;;;;;;11.13;9.10;;;;;;;;;;5094869;28;20047;-75
2023/07/19 03:43:11;;;;;;;12.35;9.65;;;;;;;;;;5095455;27;20043;-75
2023/07/19 03:45:37;;;;;;;12.68;9.95;;;;;;;;;;5095454;28;20117;-75
2023/07/19 03:48:03;;;;;;;12.43;9.68;;;;;;;;;;5095440;28;20040;-75
2023/07/19 03:50:29;;;;;;;13.75;10.25;;;;;;;;;;5103683;28;20155;-74
2023/07/19 03:52:55;;;;;;;13.73;10.18;;;;;;;;;;5115230;28;20047;-75
2023/07/19 03:55:21;;;;;;;12.95;10.13;;;;;;;;;;5112931;28;20043;-75
2023/07/19 03:57:48;;;;;;;13.43;9.65;;;;;;;;;;5096091;27;20043;-75
2023/07/19 04:00:14;;;;;;;11.25;9.30;;;;;;;;;;5113306;27;20051;-75
2023/07/19 04:02:40;;;;;;;14.80;9.50;;;;;;;;;;5103057;27;20132;-75
2023/07/19 04:05:06;;;;;;;11.85;9.40;;;;;;;;;;5094618;28;20040;-75
2023/07/19 04:07:32;;;;;;;10.90;8.90;;;;;;;;;;5102465;27;20054;-75
2023/07/19 04:09:58;;;;;;;10.25;9.10;;;;;;;;;;5097582;28;20048;-75
2023/07/19 04:12:24;;;;;;;12.15;9.38;;;;;;;;;;5098604;28;20069;-75
2023/07/19 04:14:50;;;;;;;12.70;9.15;;;;;;;;;;5095162;28;20487;-75
2023/07/19 04:17:16;;;;;;;11.55;8.73;;;;;;;;;;5102629;28;20154;-75
2023/07/19 04:19:42;;;;;;;11.85;8.88;;;;;;;;;;5114698;28;20058;-75
2023/07/19 04:22:08;;;;;;;10.00;8.85;;;;;;;;;;5111605;28;20442;-75
2023/07/19 04:24:34;;;;;;;11.63;8.80;;;;;;;;;;5107307;28;20087;-75
2023/07/19 04:27:00;;;;;;;12.70;8.85;;;;;;;;;;5113925;28;20052;-75
2023/07/19 04:29:27;;;;;;;11.35;8.38;;;;;;;;;;5114584;28;20458;-75
2023/07/19 04:31:53;;;;;;;9.93;8.60;;;;;;;;;;5105662;28;20048;-75
2023/07/19 04:34:20;;;;;;;12.18;9.50;;;;;;;;;;5112841;28;20049;-75
2023/07/19 04:36:46;;;;;;;10.20;7.88;;;;;;;;;;5093597;28;20056;-75
2023/07/19 04:39:12;;;;;;;11.70;8.65;;;;;;;;;;5107435;28;20042;-75
2023/07/19 04:41:38;;;;;;;12.45;8.43;;;;;;;;;;5113981;28;20096;-75
2023/07/19 04:44:04;;;;;;;12.77;9.00;;;;;;;;;;5113707;27;20379;-75
2023/07/19 04:46:30;;;;;;;12.52;9.48;;;;;;;;;;5111595;28;20092;-75
2023/07/19 04:48:56;;;;;;;12.30;9.18;;;;;;;;;;5094175;28;20189;-75
2023/07/19 04:51:22;;;;;;;10.52;8.38;;;;;;;;;;5094333;28;20040;-75
2023/07/19 04:53:48;;;;;;;11.43;7.95;;;;;;;;;;5113888;28;20039;-75
2023/07/19 04:56:15;;;;;;;12.95;8.82;;;;;;;;;;5100414;28;20040;-75
2023/07/19 04:58:41;;;;;;;9.20;8.00;;;;;;;;;;5105853;28;20040;-75
2023/07/19 05:01:08;;;;;;;8.70;7.50;;;;;;;;;;5095638;28;20391;-75
2023/07/19 05:03:34;;;;;;;12.88;7.60;;;;;;;;;;5101965;28;20048;-75
2023/07/19 05:06:00;;;;;;;10.98;6.60;;;;;;;;;;5113324;28;20389;-75
2023/07/19 05:08:27;;;;;;;8.80;6.68;;;;;;;;;;5098382;28;20036;-75
2023/07/19 05:10:53;;;;;;;8.88;5.65;;;;;;;;;;5099962;28;20405;-75
2023/07/19 05:13:19;;;;;;;9.00;5.82;;;;;;;;;;5113833;28;20116;-75
2023/07/19 05:15:45;;;;;;;9.00;5.75;;;;;;;;;;5108771;28;20047;-75
2023/07/19 05:18:11;;;;;;;10.05;4.82;;;;;;;;;;5100435;28;20043;-75
2023/07/19 05:20:37;;;;;;;9.27;4.50;;;;;;;;;;5101953;28;20085;-75
2023/07/19 05:23:03;;;;;;;6.30;4.60;;;;;;;;;;5099118;28;20097;-75
2023/07/19 05:25:29;;;;;;;6.25;4.07;;;;;;;;;;5113355;28;20039;-75
2023/07/19 05:27:55;;;;;;;8.60;4.55;;;;;;;;;;5113727;28;20056;-75
2023/07/19 05:30:21;;;;;;;7.25;4.40;;;;;;;;;;5133866;27;20047;-75
2023/07/19 05:32:47;;;;;;;6.68;4.10;;;;;;;;;;5094819;28;20043;-75
2023/07/19 05:35:13;;;;;;;6.72;3.90;;;;;;;;;;5094388;28;20045;-75
2023/07/19 05:37:40;;;;;;;6.32;3.67;;;;;;;;;;5092952;28;20086;-74
2023/07/19 05:40:07;;;;;;;6.85;3.50;;;;;;;;;;5093445;28;20060;-74
2023/07/19 05:42:34;;;;;;;6.15;3.90;;;;;;;;;;5093281;28;20047;-75
2023/07/19 05:45:00;;;;;;;6.38;4.03;;;;;;;;;;5093065;28;20062;-75
2023/07/19 05:47:26;;;;;;;7.75;3.97;;;;;;;;;;5111223;28;20040;-74
2023/07/19 05:49:52;;;;;;;6.10;3.47;;;;;;;;;;5133659;28;20122;-75
2023/07/19 05:52:18;;;;;;;9.82;3.75;;;;;;;;;;5133943;28;20096;-75
2023/07/19 05:54:45;;;;;;;6.95;4.28;;;;;;;;;;5107980;28;20043;-75
2023/07/19 05:57:11;;;;;;;10.73;4.40;;;;;;;;;;5092836;28;20048;-75
2023/07/19 05:59:37;;;;;;;4.85;3.58;;;;;;;;;;5093027;28;20044;-75
2023/07/19 06:02:05;;;;;;;6.47;3.88;;;;;;;;;;5093616;28;20040;-75
2023/07/19 06:04:31;;;;;;;6.85;3.60;;;;;;;;;;5092930;28;20375;-75
2023/07/19 06:06:57;;;;;;;8.75;3.88;;;;;;;;;;5095120;28;20040;-75
2023/07/19 06:09:24;;;;;;;6.80;3.60;;;;;;;;;;5111884;28;20078;-75
2023/07/19 06:11:50;;;;;;;5.90;3.75;;;;;;;;;;5113166;27;20565;-75
2023/07/19 06:14:16;;;;;;;7.75;3.50;;;;;;;;;;5113289;28;20051;-75
2023/07/19 06:16:42;;;;;;;7.40;4.20;;;;;;;;;;5107372;28;20040;-75
2023/07/19 06:19:08;;;;;;;5.53;3.70;;;;;;;;;;5093849;28;20194;-75
2023/07/19 06:21:34;;;;;;;6.63;3.70;;;;;;;;;;5092561;28;20445;-75
2023/07/19 06:24:01;;;;;;;6.20;3.28;;;;;;;;;;5107211;28;20461;-75
2023/07/19 06:26:27;;;;;;;7.28;3.70;;;;;;;;;;5112621;28;20060;-75
2023/07/19 06:28:53;;;;;;;6.75;3.42;;;;;;;;;;5113085;28;20123;-75
2023/07/19 06:31:19;;;;;;;7.07;3.67;;;;;;;;;;5109948;28;20047;-75
2023/07/19 06:33:45;;;;;;;6.40;3.67;;;;;;;;;;5110890;28;20047;-75
2023/07/19 06:36:11;;;;;;;5.57;3.53;;;;;;;;;;5115211;28;20075;-75
2023/07/19 06:38:37;;;;;;;5.50;3.03;;;;;;;;;;5113293;27;20040;-74
2023/07/19 06:41:04;;;;;;;5.90;3.17;;;;;;;;;;5101373;27;20051;-75
2023/07/19 06:43:30;;;;;;;7.55;4.05;;;;;;;;;;5098672;27;20050;-75
2023/07/19 06:45:56;;;;;;;6.15;3.80;;;;;;;;;;5113363;27;20123;-75
2023/07/19 06:48:23;;;;;;;6.90;3.53;;;;;;;;;;5098764;27;20377;-75
2023/07/19 06:50:49;;;;;;;7.22;3.40;;;;;;;;;;5100218;28;20122;-75
2023/07/19 06:53:16;;;;;;;6.45;3.10;;;;;;;;;;5114709;28;20054;-75
2023/07/19 06:55:42;;;;;;;6.07;3.67;;;;;;;;;;5102707;28;20115;-74
2023/07/19 06:58:08;;;;;;;5.40;3.05;;;;;;;;;;5116494;28;20043;-75
2023/07/19 07:00:36;;;;;;;6.15;3.58;;;;;;;;;;5106148;28;20090;-75
2023/07/19 07:03:05;;;;;;;5.32;3.05;;;;;;;;;;5114116;27;20043;-75
2023/07/19 07:05:31;;;;;;;7.07;3.60;;;;;;;;;;5111783;28;20498;-75
2023/07/19 07:07:57;;;;;;;5.22;2.83;;;;;;;;;;5097500;28;20459;-75
2023/07/19 07:10:23;;;;;;;4.75;2.75;;;;;;;;;;5095202;28;20083;-75
2023/07/19 07:12:49;;;;;;;9.35;3.65;;;;;;;;;;5095066;28;20066;-75
2023/07/19 07:15:15;;;;;;;6.32;2.80;;;;;;;;;;5095370;28;20048;-75
2023/07/19 07:17:41;;;;;;;6.50;3.00;;;;;;;;;;5113589;28;20493;-75
2023/07/19 07:20:07;;;;;;;4.07;2.30;;;;;;;;;;5105024;28;20473;-75
2023/07/19 07:22:34;;;;;;;4.65;2.50;;;;;;;;;;5099884;28;20105;-75
2023/07/19 07:25:00;;;;;;;8.00;2.60;;;;;;;;;;5106262;28;20067;-75
2023/07/19 07:27:29;;;;;;;5.60;2.65;;;;;;;;;;5113036;28;20479;-75
2023/07/19 07:29:55;;;;;;;4.15;2.40;;;;;;;;;;5115347;28;20482;-75
2023/07/19 07:32:21;;;;;;;5.15;2.42;;;;;;;;;;5110556;28;20248;-75
2023/07/19 07:34:47;;;;;;;4.68;2.65;;;;;;;;;;5100559;28;20151;-75
2023/07/19 07:37:13;;;;;;;5.65;2.50;;;;;;;;;;5102943;28;20039;-75
2023/07/19 07:39:39;;;;;;;5.45;2.58;;;;;;;;;;5103087;27;20043;-75
2023/07/19 07:42:05;;;;;;;4.68;2.63;;;;;;;;;;5115094;27;20105;-76
2023/07/19 07:44:31;;;;;;;3.75;2.20;;;;;;;;;;5096711;28;20074;-75
2023/07/19 07:46:57;;;;;;;3.78;2.45;;;;;;;;;;5119170;28;20563;-76
2023/07/19 07:49:23;;;;;;;2.80;1.90;;;;;;;;;;5119713;28;20036;-76
